createdAt,value
2018-03-29T00:01:32.823Z,76.23
2018-03-29T00:04:02.477Z,58.23
2018-03-29T00:06:32.646Z,91.90
2018-03-29T00:09:02.204Z,78.83
2018-03-29T00:11:31.856Z,82.00
2018-03-29T00:14:01.363Z,75.33
2018-03-29T00:16:32.045Z,76.20
2018-03-29T00:19:01.506Z,74.53
2018-03-29T00:21:31.110Z,63.10
2018-03-29T00:24:02.378Z,66.33
2018-03-29T00:26:32.773Z,58.13
2018-03-29T00:29:02.278Z,66.40
2018-03-29T00:31:31.849Z,60.70
2018-03-29T00:34:01.383Z,71.73
2018-03-29T00:36:30.914Z,53.83
2018-03-29T00:39:00.370Z,61.37
2018-03-29T00:41:30.842Z,68.60
2018-03-29T00:44:00.300Z,62.53
2018-03-29T00:46:29.957Z,67.93
2018-03-29T00:48:59.993Z,74.03
2018-03-29T00:52:05.252Z,60.00
2018-03-29T00:54:34.800Z,56.80
2018-03-29T00:57:04.285Z,67.73
2018-03-29T00:59:34.083Z,62.23
2018-03-29T01:02:03.674Z,63.80
2018-03-29T01:04:33.205Z,65.73
2018-03-29T01:07:03.546Z,64.53
2018-03-29T01:09:33.092Z,74.47
2018-03-29T01:12:02.616Z,56.70
2018-03-29T01:14:32.209Z,65.07
2018-03-29T01:17:01.671Z,50.50
2018-03-29T01:19:31.207Z,55.10
2018-03-29T01:22:00.778Z,52.13
2018-03-29T01:24:30.316Z,56.97
2018-03-29T01:30:20.829Z,58.57
2018-03-29T01:32:50.120Z,63.73
2018-03-29T01:35:19.391Z,69.57
2018-03-29T01:37:48.814Z,74.33
2018-03-29T01:40:18.074Z,72.33
2018-03-29T01:42:47.377Z,71.90
2018-03-29T01:45:16.704Z,71.80
2018-03-29T01:47:45.924Z,62.00
2018-03-29T01:50:15.162Z,67.47
2018-03-29T01:52:44.656Z,79.10
2018-03-29T01:55:13.924Z,70.00
2018-03-29T01:57:43.179Z,71.27
2018-03-29T02:00:12.713Z,71.67
2018-03-29T02:02:41.996Z,70.93
2018-03-29T02:05:11.978Z,72.70
2018-03-29T02:07:41.312Z,68.97
2018-03-29T02:10:14.700Z,67.97
2018-03-29T02:12:50.157Z,59.67
2018-03-29T02:15:22.591Z,72.13
2018-03-29T02:17:52.075Z,59.63
2018-03-29T02:20:22.746Z,63.27
2018-03-29T02:22:52.499Z,60.53
2018-03-29T02:25:21.706Z,71.93
2018-03-29T02:27:51.000Z,64.23
2018-03-29T02:30:20.309Z,64.67
2018-03-29T02:32:49.536Z,58.63
2018-03-29T02:35:18.792Z,63.13
2018-03-29T02:37:48.108Z,63.70
2018-03-29T02:40:17.455Z,66.93
2018-03-29T02:42:46.963Z,62.90
2018-03-29T02:45:16.439Z,44.63
2018-03-29T02:47:46.584Z,53.37
2018-03-29T02:50:15.947Z,69.97
2018-03-29T02:52:46.282Z,69.90
2018-03-29T02:55:16.039Z,48.80
2018-03-29T02:57:45.668Z,50.90
2018-03-29T03:00:15.857Z,52.00
2018-03-29T03:02:46.569Z,53.53
2018-03-29T03:05:15.809Z,57.63
2018-03-29T03:07:45.108Z,61.90
2018-03-29T03:10:14.477Z,51.20
2018-03-29T03:12:44.642Z,62.43
2018-03-29T03:15:13.997Z,69.70
2018-03-29T03:17:45.255Z,64.00
2018-03-29T03:20:17.639Z,60.50
2018-03-29T03:22:50.338Z,74.13
2018-03-29T03:25:25.056Z,59.33
2018-03-29T03:27:57.808Z,68.57
2018-03-29T03:33:48.729Z,66.73
2018-03-29T03:36:18.156Z,71.47
2018-03-29T03:38:48.134Z,73.37
2018-03-29T03:41:17.620Z,64.17
2018-03-29T03:43:47.017Z,66.43
2018-03-29T03:46:16.439Z,63.67
2018-03-29T03:48:46.686Z,71.03
2018-03-29T03:51:16.124Z,65.67
2018-03-29T03:53:45.740Z,68.23
2018-03-29T03:56:15.397Z,66.23
2018-03-29T03:58:44.987Z,67.27
2018-03-29T04:01:14.700Z,64.77
2018-03-29T04:03:45.047Z,74.93
2018-03-29T04:06:14.696Z,67.53
2018-03-29T04:08:45.008Z,75.33
2018-03-29T04:11:14.425Z,62.50
2018-03-29T04:13:43.829Z,65.77
2018-03-29T04:16:13.329Z,66.47
2018-03-29T04:18:43.982Z,71.27
2018-03-29T04:21:17.037Z,62.77
2018-03-29T04:23:48.716Z,64.50
2018-03-29T04:26:20.288Z,61.47
2018-03-29T04:28:52.861Z,56.47
2018-03-29T04:31:22.319Z,68.73
2018-03-29T04:33:51.754Z,64.43
2018-03-29T04:36:21.189Z,60.47
2018-03-29T04:38:53.683Z,70.73
2018-03-29T04:41:23.490Z,70.60
2018-03-29T04:43:53.530Z,59.97
2018-03-29T04:46:22.944Z,60.70
2018-03-29T04:48:52.501Z,58.17
2018-03-29T04:51:22.086Z,68.03
2018-03-29T04:53:51.524Z,64.13
2018-03-29T04:56:21.364Z,58.70
2018-03-29T04:58:51.183Z,55.83
2018-03-29T05:01:20.843Z,59.87
2018-03-29T05:03:50.521Z,66.70
2018-03-29T05:06:20.474Z,69.67
2018-03-29T05:08:50.247Z,72.80
2018-03-29T05:11:20.246Z,67.73
2018-03-29T05:13:51.621Z,63.90
2018-03-29T05:16:21.362Z,69.07
2018-03-29T05:22:22.030Z,65.87
2018-03-29T05:24:51.983Z,66.73
2018-03-29T05:27:28.072Z,43.37
2018-03-29T05:29:57.937Z,37.07
2018-03-29T05:32:28.013Z,36.10
2018-03-29T05:34:57.527Z,33.17
2018-03-29T05:37:27.450Z,33.23
2018-03-29T05:43:28.107Z,51.00
2018-03-29T05:45:57.526Z,50.37
2018-03-29T05:48:26.823Z,51.33
2018-03-29T05:50:57.106Z,40.37
2018-03-29T05:53:27.170Z,55.97
2018-03-29T05:55:56.607Z,39.87
2018-03-29T05:58:26.054Z,40.53
2018-03-29T06:00:55.510Z,35.40
2018-03-29T06:03:49.699Z,45.87
2018-03-29T06:06:19.480Z,38.17
2018-03-29T06:08:49.324Z,44.07
2018-03-29T06:11:19.070Z,40.30
2018-03-29T06:13:54.412Z,42.23
2018-03-29T06:16:24.129Z,49.37
2018-03-29T06:19:08.483Z,32.77
2018-03-29T06:21:38.307Z,27.53
2018-03-29T06:24:08.100Z,26.93
2018-03-29T06:26:37.856Z,26.03
2018-03-29T06:29:07.445Z,21.50
2018-03-29T06:31:37.202Z,24.30
2018-03-29T06:34:07.607Z,23.97
2018-03-29T06:36:37.460Z,33.97
2018-03-29T06:39:07.385Z,32.90
2018-03-29T06:41:37.199Z,32.67
2018-03-29T06:44:07.729Z,32.83
2018-03-29T06:49:20.617Z,36.77
2018-03-29T06:55:21.281Z,35.97
2018-03-29T06:57:50.567Z,40.43
2018-03-29T07:00:19.779Z,32.70
2018-03-29T07:02:49.082Z,40.40
2018-03-29T07:05:18.390Z,41.17
2018-03-29T07:07:47.550Z,35.00
2018-03-29T07:10:16.897Z,43.37
2018-03-29T07:12:47.398Z,34.80
2018-03-29T07:15:16.732Z,43.83
2018-03-29T07:17:45.974Z,43.87
2018-03-29T07:20:15.233Z,40.07
2018-03-29T07:22:44.477Z,38.97
2018-03-29T07:25:13.755Z,43.50
2018-03-29T07:27:42.976Z,36.90
2018-03-29T07:30:12.319Z,38.97
2018-03-29T07:32:41.511Z,36.03
2018-03-29T07:38:31.593Z,32.90
2018-03-29T07:41:00.997Z,32.63
2018-03-29T07:43:30.406Z,33.73
2018-03-29T07:45:59.790Z,41.93
2018-03-29T07:48:29.870Z,33.77
2018-03-29T07:50:59.253Z,33.50
2018-03-29T07:53:28.703Z,31.40
2018-03-29T07:55:58.160Z,33.10
2018-03-29T07:58:27.527Z,31.20
2018-03-29T08:00:56.936Z,40.30
2018-03-29T08:03:26.244Z,37.70
2018-03-29T08:05:55.658Z,34.40
2018-03-29T08:08:25.117Z,35.93
2018-03-29T08:10:54.422Z,31.53
2018-03-29T08:13:23.739Z,33.00
2018-03-29T08:19:17.507Z,35.90
2018-03-29T08:21:47.030Z,36.30
2018-03-29T08:24:16.234Z,29.87
2018-03-29T08:30:06.542Z,34.43
2018-03-29T08:35:56.808Z,34.47
2018-03-29T08:38:26.149Z,38.93
2018-03-29T08:40:55.538Z,37.90
2018-03-29T08:43:51.611Z,35.30
2018-03-29T08:49:42.100Z,36.93
2018-03-29T08:52:11.434Z,41.43
2018-03-29T08:54:40.781Z,31.67
2018-03-29T08:57:10.215Z,35.63
2018-03-29T08:59:39.721Z,31.47
2018-03-29T09:02:09.092Z,32.57
2018-03-29T09:04:38.443Z,27.97
2018-03-29T09:07:07.712Z,33.10
2018-03-29T09:09:36.972Z,37.10
2018-03-29T09:12:06.303Z,31.60
2018-03-29T09:14:35.633Z,32.70
2018-03-29T09:17:04.897Z,34.33
2018-03-29T09:19:34.196Z,40.70
2018-03-29T09:22:03.462Z,34.83
2018-03-29T09:24:32.791Z,34.73
2018-03-29T09:27:02.137Z,39.87
2018-03-29T09:29:31.492Z,34.03
2018-03-29T09:32:00.811Z,36.23
2018-03-29T09:34:30.145Z,32.17
2018-03-29T09:36:59.424Z,38.13
2018-03-29T09:39:29.658Z,37.13
2018-03-29T09:41:59.032Z,40.20
2018-03-29T09:44:28.277Z,41.30
2018-03-29T09:46:57.569Z,41.80
2018-03-29T09:49:26.893Z,39.03
2018-03-29T09:51:56.175Z,39.13
2018-03-29T09:54:26.208Z,42.80
2018-03-29T09:56:56.091Z,36.13
2018-03-29T09:59:25.339Z,40.17
2018-03-29T10:01:54.800Z,41.73
2018-03-29T10:04:24.191Z,39.63
2018-03-29T10:06:58.813Z,39.17
2018-03-29T10:09:28.194Z,35.27
2018-03-29T10:11:58.278Z,36.80
2018-03-29T10:14:28.258Z,35.63
2018-03-29T10:16:57.593Z,47.43
2018-03-29T10:19:26.869Z,36.03
2018-03-29T10:21:56.242Z,32.10
2018-03-29T10:24:25.547Z,39.17
2018-03-29T10:26:54.816Z,39.77
2018-03-29T10:29:24.169Z,31.17
2018-03-29T10:31:53.449Z,33.33
2018-03-29T10:34:22.756Z,33.93
2018-03-29T10:36:52.127Z,40.73
2018-03-29T10:39:21.420Z,39.43
2018-03-29T10:41:50.685Z,35.50
2018-03-29T10:44:20.039Z,35.13
2018-03-29T10:46:49.327Z,38.27
2018-03-29T10:49:18.632Z,33.67
2018-03-29T10:51:47.971Z,32.03
2018-03-29T10:54:17.759Z,31.23
2018-03-29T10:56:47.325Z,27.30
2018-03-29T10:59:17.479Z,34.00
2018-03-29T11:01:46.807Z,29.30
2018-03-29T11:04:16.056Z,27.23
2018-03-29T11:06:45.497Z,31.23
2018-03-29T11:09:14.730Z,31.80
2018-03-29T11:11:44.011Z,32.20
2018-03-29T11:14:13.358Z,41.03
2018-03-29T11:16:42.720Z,43.20
2018-03-29T11:19:11.992Z,37.27
2018-03-29T11:21:41.456Z,35.83
2018-03-29T11:24:11.500Z,36.40
2018-03-29T11:26:41.084Z,40.80
2018-03-29T11:29:10.414Z,45.80
2018-03-29T11:31:39.690Z,41.73
2018-03-29T11:34:09.945Z,39.43
2018-03-29T11:36:40.216Z,42.07
2018-03-29T11:42:40.361Z,40.50
2018-03-29T11:48:30.482Z,42.03
2018-03-29T11:50:59.785Z,32.63
2018-03-29T11:53:29.024Z,29.67
2018-03-29T11:55:58.418Z,45.17
2018-03-29T11:58:27.671Z,32.80
2018-03-29T12:00:56.966Z,31.03
2018-03-29T12:03:26.317Z,36.07
2018-03-29T12:05:55.598Z,36.27
2018-03-29T12:08:24.857Z,33.70
2018-03-29T12:11:05.887Z,27.27
2018-03-29T12:13:37.890Z,30.40
2018-03-29T12:16:08.077Z,32.07
2018-03-29T12:18:38.602Z,28.77
2018-03-29T12:21:08.383Z,33.13
2018-03-29T12:23:37.731Z,32.30
2018-03-29T12:26:07.547Z,31.80
2018-03-29T12:28:37.020Z,30.47
2018-03-29T12:31:08.112Z,29.40
2018-03-29T12:33:37.650Z,32.73
2018-03-29T12:36:09.573Z,34.30
2018-03-29T12:38:40.028Z,30.33
2018-03-29T12:41:09.298Z,27.47
2018-03-29T12:43:39.795Z,33.03
2018-03-29T12:46:09.168Z,49.43
2018-03-29T12:48:38.454Z,36.87
2018-03-29T12:51:07.815Z,32.67
2018-03-29T12:53:37.211Z,36.50
2018-03-29T12:56:07.861Z,32.73
2018-03-29T12:58:37.164Z,30.27
2018-03-29T13:01:06.633Z,35.83
2018-03-29T13:03:36.044Z,37.17
2018-03-29T13:06:05.309Z,32.57
2018-03-29T13:08:34.626Z,28.23
2018-03-29T13:11:04.040Z,32.77
2018-03-29T13:13:33.349Z,28.70
2018-03-29T13:16:02.607Z,31.50
2018-03-29T13:18:32.001Z,26.23
2018-03-29T13:21:03.074Z,26.73
2018-03-29T13:23:32.928Z,32.97
2018-03-29T13:26:02.256Z,25.77
2018-03-29T13:28:36.047Z,26.43
2018-03-29T13:31:05.432Z,22.70
2018-03-29T13:33:34.733Z,21.93
2018-03-29T13:36:04.010Z,18.10
2018-03-29T13:38:33.351Z,22.33
2018-03-29T13:41:02.728Z,16.37
2018-03-29T13:43:32.030Z,23.30
2018-03-29T13:46:01.555Z,26.10
2018-03-29T13:48:31.527Z,25.47
2018-03-29T13:51:00.804Z,31.90
2018-03-29T13:53:30.149Z,26.30
2018-03-29T13:55:59.643Z,28.23
2018-03-29T13:58:28.909Z,23.07
2018-03-29T14:00:58.190Z,22.43
2018-03-29T14:03:27.538Z,24.53
2018-03-29T14:05:57.569Z,22.43
2018-03-29T14:09:15.040Z,24.40
2018-03-29T14:11:44.279Z,23.30
2018-03-29T14:14:14.284Z,22.17
2018-03-29T14:16:45.136Z,21.23
2018-03-29T14:19:15.075Z,26.97
2018-03-29T14:21:44.597Z,16.27
2018-03-29T14:24:13.826Z,16.67
2018-03-29T14:26:43.337Z,17.90
2018-03-29T14:29:12.630Z,33.30
2018-03-29T14:31:41.875Z,28.50
2018-03-29T14:34:11.926Z,20.67
2018-03-29T14:36:41.894Z,23.13
2018-03-29T14:39:11.421Z,15.90
2018-03-29T14:41:40.656Z,19.93
2018-03-29T14:44:10.142Z,14.47
2018-03-29T14:46:39.370Z,15.07
2018-03-29T14:49:08.616Z,13.77
2018-03-29T14:51:37.828Z,14.07
2018-03-29T14:54:07.193Z,14.00
2018-03-29T14:56:36.368Z,13.27
2018-03-29T14:59:05.687Z,7.93
2018-03-29T15:01:34.966Z,10.17
2018-03-29T15:04:04.222Z,16.10
2018-03-29T15:06:33.514Z,11.57
2018-03-29T15:09:03.593Z,14.03
2018-03-29T15:11:32.971Z,15.57
2018-03-29T15:14:02.313Z,12.50
2018-03-29T15:16:31.535Z,8.47
2018-03-29T15:19:01.637Z,11.43
2018-03-29T15:21:34.966Z,20.93
2018-03-29T15:24:04.252Z,14.23
2018-03-29T15:26:33.674Z,6.67
2018-03-29T15:29:03.359Z,10.23
2018-03-29T15:31:34.412Z,11.33
2018-03-29T15:34:03.741Z,12.30
2018-03-29T15:36:33.487Z,17.03
2018-03-29T15:39:06.194Z,13.63
2018-03-29T15:41:35.506Z,12.50
2018-03-29T15:44:05.733Z,14.03
2018-03-29T15:46:35.053Z,10.17
2018-03-29T15:49:04.234Z,13.10
2018-03-29T15:51:33.528Z,12.37
2018-03-29T15:54:05.546Z,9.10
2018-03-29T15:56:34.916Z,13.17
2018-03-29T15:59:04.132Z,13.70
2018-03-29T16:01:33.483Z,6.83
2018-03-29T16:07:35.044Z,10.67
2018-03-29T16:10:54.811Z,10.77
2018-03-29T16:13:24.549Z,7.47
2018-03-29T16:15:54.150Z,12.40
2018-03-29T16:18:23.665Z,10.17
2018-03-29T16:20:53.685Z,11.87
2018-03-29T16:23:23.401Z,13.97
2018-03-29T16:49:25.613Z,13.03
2018-03-29T16:51:55.993Z,12.93
2018-03-29T16:54:25.592Z,11.73
2018-03-29T17:00:16.877Z,21.47
2018-03-29T17:02:46.440Z,28.53
2018-03-29T17:05:17.773Z,13.37
2018-03-29T17:07:47.734Z,23.83
2018-03-29T17:13:38.479Z,15.23
2018-03-29T17:16:07.909Z,19.13
2018-03-29T17:18:38.045Z,11.43
2018-03-29T17:21:07.603Z,15.83
2018-03-29T17:26:58.341Z,25.93
2018-03-29T17:29:27.667Z,22.23
2018-03-29T17:31:56.879Z,29.50
2018-03-29T17:34:27.391Z,23.20
2018-03-29T17:36:59.531Z,24.63
2018-03-29T17:39:31.267Z,19.83
2018-03-29T17:42:04.422Z,20.97
2018-03-29T17:44:35.362Z,20.30
2018-03-29T17:47:04.671Z,22.87
2018-03-29T17:52:56.029Z,18.07
2018-03-29T17:55:30.324Z,17.07
2018-03-29T17:58:04.777Z,26.00
2018-03-29T18:00:37.360Z,18.90
2018-03-29T18:03:08.222Z,16.17
2018-03-29T18:12:15.714Z,18.77
2018-03-29T18:14:45.269Z,18.77
2018-03-29T18:17:14.726Z,21.73
2018-03-29T18:19:45.070Z,14.80
2018-03-29T18:22:14.493Z,17.07
2018-03-29T18:24:44.990Z,23.00
2018-03-29T18:27:15.051Z,17.97
2018-03-29T18:29:44.534Z,17.83
2018-03-29T18:32:15.928Z,22.93
2018-03-29T18:34:45.376Z,23.43
2018-03-29T18:37:14.968Z,18.50
2018-03-29T18:39:44.389Z,23.20
2018-03-29T18:42:13.974Z,17.30
2018-03-29T18:44:43.453Z,20.83
2018-03-29T18:47:12.948Z,17.63
2018-03-29T18:49:42.469Z,18.90
2018-03-29T18:52:12.048Z,18.43
2018-03-29T18:54:41.462Z,23.40
2018-03-29T18:57:10.988Z,25.77
2018-03-29T18:59:40.519Z,22.67
2018-03-29T19:02:10.884Z,25.07
2018-03-29T19:04:40.373Z,32.13
2018-03-29T19:07:09.885Z,24.40
2018-03-29T19:09:39.380Z,17.50
2018-03-29T19:12:08.965Z,32.33
2018-03-29T19:14:38.603Z,20.53
2018-03-29T19:17:08.592Z,23.13
2018-03-29T19:19:40.687Z,16.83
2018-03-29T19:22:10.234Z,21.37
2018-03-29T19:24:41.529Z,20.40
2018-03-29T19:27:13.066Z,24.67
2018-03-29T19:29:42.814Z,17.47
2018-03-29T19:32:12.263Z,23.07
2018-03-29T19:34:41.772Z,22.03
2018-03-29T19:37:12.182Z,22.20
2018-03-29T19:40:19.230Z,24.00
2018-03-29T19:42:49.823Z,24.57
2018-03-29T19:45:19.368Z,27.67
2018-03-29T19:47:49.126Z,23.50
2018-03-29T19:50:19.036Z,30.70
2018-03-29T19:52:48.764Z,32.63
2018-03-29T19:55:18.537Z,26.47
2018-03-29T19:57:48.048Z,19.73
2018-03-29T20:03:49.505Z,27.00
2018-03-29T20:06:19.874Z,25.80
2018-03-29T20:12:10.408Z,23.60
2018-03-29T20:14:40.467Z,28.53
2018-03-29T20:17:09.776Z,21.63
2018-03-29T20:19:39.148Z,22.37
2018-03-29T20:25:40.458Z,21.40
2018-03-29T20:28:09.958Z,27.80
2018-03-29T20:30:40.220Z,25.10
2018-03-29T20:33:09.759Z,31.97
2018-03-29T20:35:39.190Z,20.40
2018-03-29T20:38:09.490Z,29.83
2018-03-29T20:40:39.058Z,31.60
2018-03-29T20:43:08.567Z,26.47
2018-03-29T20:45:38.104Z,51.13
2018-03-29T20:48:07.722Z,23.50
2018-03-29T20:50:37.307Z,30.33
2018-03-29T20:53:07.343Z,29.47
2018-03-29T20:55:37.930Z,30.80
2018-03-29T20:58:07.578Z,28.30
2018-03-29T21:00:37.102Z,32.33
2018-03-29T21:03:06.717Z,23.40
2018-03-29T21:05:37.552Z,32.27
2018-03-29T21:08:07.451Z,35.43
2018-03-29T21:10:37.356Z,26.77
2018-03-29T21:13:11.540Z,25.80
2018-03-29T21:15:47.654Z,26.90
2018-03-29T21:18:18.253Z,31.27
2018-03-29T21:20:47.861Z,29.00
2018-03-29T21:23:18.082Z,37.93
2018-03-29T21:25:47.703Z,23.03
2018-03-29T21:28:17.282Z,25.73
2018-03-29T21:30:46.790Z,29.33
2018-03-29T21:33:16.359Z,28.87
2018-03-29T21:35:45.865Z,24.33
2018-03-29T21:38:15.453Z,25.13
2018-03-29T21:40:45.688Z,30.43
2018-03-29T21:43:15.768Z,29.20
2018-03-29T21:45:45.215Z,29.80
2018-03-29T21:48:42.046Z,33.60
2018-03-29T21:51:11.691Z,29.00
2018-03-29T21:53:41.238Z,58.67
2018-03-29T21:56:10.929Z,39.50
2018-03-29T21:58:40.801Z,33.53
2018-03-29T22:01:10.989Z,29.53
2018-03-29T22:03:40.431Z,32.80
2018-03-29T22:06:10.178Z,31.00
2018-03-29T22:08:39.737Z,38.00
2018-03-29T22:11:10.017Z,42.50
2018-03-29T22:13:54.394Z,37.07
2018-03-29T22:16:24.815Z,32.50
2018-03-29T22:18:54.610Z,35.53
2018-03-29T22:21:24.182Z,26.47
2018-03-29T22:23:53.600Z,36.83
2018-03-29T22:26:23.242Z,36.50
2018-03-29T22:28:52.718Z,39.83
2018-03-29T22:31:23.194Z,36.53
2018-03-29T22:33:59.315Z,32.10
2018-03-29T22:36:35.298Z,38.07
2018-03-29T22:39:14.219Z,37.47
2018-03-29T22:41:50.726Z,42.63
2018-03-29T22:44:27.141Z,35.93
2018-03-29T22:47:03.369Z,39.33
2018-03-29T22:49:33.556Z,45.57
2018-03-29T22:52:06.072Z,43.70
2018-03-29T22:54:38.731Z,40.57
2018-03-29T22:57:11.484Z,36.37
2018-03-29T22:59:41.615Z,32.20
2018-03-29T23:02:11.177Z,39.37
2018-03-29T23:04:40.630Z,47.17
2018-03-29T23:07:10.156Z,33.10
2018-03-29T23:09:39.806Z,41.27
2018-03-29T23:12:14.526Z,41.97
2018-03-29T23:14:44.340Z,37.53
2018-03-29T23:17:13.779Z,45.13
2018-03-29T23:19:43.298Z,44.53
2018-03-29T23:22:12.787Z,54.17
2018-03-29T23:24:42.287Z,46.60
2018-03-29T23:27:11.822Z,38.67
2018-03-29T23:29:41.339Z,45.53
2018-03-29T23:32:10.821Z,55.27
2018-03-29T23:34:40.278Z,52.17
2018-03-29T23:37:09.889Z,50.67
2018-03-29T23:39:39.350Z,54.40
2018-03-29T23:45:32.702Z,48.27
2018-03-29T23:48:02.261Z,54.10
2018-03-29T23:51:22.087Z,64.77
2018-03-29T23:53:51.846Z,57.70
2018-03-29T23:56:21.361Z,55.63
2018-03-29T23:58:51.068Z,48.80
